createdAt,value
2022-10-04T00:00:09.527Z,101889.84
2022-10-04T00:02:36.867Z,101885.50
2022-10-04T00:05:12.378Z,101887.38
2022-10-04T00:07:47.333Z,101887.13
2022-10-04T00:10:22.085Z,101888.53
2022-10-04T00:12:52.323Z,101881.47
2022-10-04T00:15:50.676Z,101881.22
2022-10-04T00:18:59.730Z,101884.16
2022-10-04T00:21:56.169Z,101873.94
2022-10-04T00:24:30.074Z,101876.63
2022-10-04T00:27:18.908Z,101867.41
2022-10-04T00:30:09.523Z,101869.31
2022-10-04T00:32:41.970Z,101872.59
2022-10-04T00:35:27.222Z,101865.53
2022-10-04T00:38:35.872Z,101866.34
2022-10-04T00:41:08.842Z,101861.75
2022-10-04T00:43:47.098Z,101857.41
2022-10-04T00:46:21.286Z,101855.75
2022-10-04T00:48:55.701Z,101846.19
2022-10-04T00:51:32.208Z,101845.94
2022-10-04T00:54:17.477Z,101857.75
2022-10-04T00:56:52.333Z,101850.56
2022-10-04T00:59:38.550Z,101861.16
2022-10-04T01:02:13.901Z,101849.00
2022-10-04T01:04:48.274Z,101835.78
2022-10-04T01:07:19.075Z,101838.50
2022-10-04T01:09:52.130Z,101830.84
2022-10-04T01:12:37.082Z,101825.50
2022-10-04T01:15:26.685Z,101817.94
2022-10-04T01:18:10.185Z,101834.22
2022-10-04T01:20:52.219Z,101832.84
2022-10-04T01:23:37.669Z,101830.69
2022-10-04T01:26:30.169Z,101827.03
2022-10-04T01:29:00.715Z,101824.31
2022-10-04T01:31:34.058Z,101824.94
2022-10-04T01:34:03.305Z,101819.84
2022-10-04T01:36:29.982Z,101825.28
2022-10-04T01:38:56.844Z,101822.91
2022-10-04T01:41:53.980Z,101831.28
2022-10-04T01:44:31.875Z,101825.50
2022-10-04T01:47:06.227Z,101829.13
2022-10-04T01:49:36.542Z,101827.41
2022-10-04T01:52:09.790Z,101823.13
2022-10-04T01:54:42.454Z,101823.94
2022-10-04T01:57:17.365Z,101820.66
2022-10-04T01:59:59.983Z,101823.38
2022-10-04T02:02:43.504Z,101812.50
2022-10-04T02:05:13.251Z,101812.84
2022-10-04T02:07:42.004Z,101807.66
2022-10-04T02:10:18.966Z,101808.25
2022-10-04T02:12:48.359Z,101798.81
2022-10-04T02:15:18.544Z,101798.22
2022-10-04T02:17:45.613Z,101788.09
2022-10-04T02:20:17.238Z,101790.56
2022-10-04T02:22:46.535Z,101793.28
2022-10-04T02:25:16.223Z,101788.19
2022-10-04T02:27:42.763Z,101781.69
2022-10-04T02:30:11.882Z,101771.06
2022-10-04T02:33:00.280Z,101770.84
2022-10-04T02:35:35.807Z,101772.13
2022-10-04T02:38:09.495Z,101768.38
2022-10-04T02:40:53.623Z,101775.19
2022-10-04T02:43:30.325Z,101766.69
2022-10-04T02:46:11.991Z,101771.31
2022-10-04T02:48:49.741Z,101768.13
2022-10-04T02:51:42.930Z,101762.22
2022-10-04T02:54:37.854Z,101760.06
2022-10-04T02:57:05.177Z,101763.25
2022-10-04T02:59:35.551Z,101762.22
2022-10-04T03:02:03.256Z,101759.50
2022-10-04T03:04:37.759Z,101764.94
2022-10-04T03:07:08.456Z,101756.88
2022-10-04T03:09:37.870Z,101754.72
2022-10-04T03:12:06.128Z,101757.44
2022-10-04T03:14:34.317Z,101750.97
2022-10-04T03:17:06.271Z,101747.16
2022-10-04T03:19:34.527Z,101742.53
2022-10-04T03:22:09.729Z,101744.19
2022-10-04T03:24:46.883Z,101735.81
2022-10-04T03:27:21.780Z,101738.28
2022-10-04T03:29:50.296Z,101729.31
2022-10-04T03:32:18.844Z,101738.84
2022-10-04T03:35:08.227Z,101733.19
2022-10-04T03:37:37.695Z,101724.22
2022-10-04T03:40:09.890Z,101722.81
2022-10-04T03:42:37.860Z,101724.47
2022-10-04T03:45:11.347Z,101722.88
2022-10-04T03:47:41.030Z,101729.91
2022-10-04T03:50:33.649Z,101722.00
2022-10-04T03:53:16.050Z,101720.09
2022-10-04T03:55:44.238Z,101718.72
2022-10-04T03:58:17.894Z,101711.63
2022-10-04T04:01:29.486Z,101715.31
2022-10-04T04:04:23.293Z,101716.88
2022-10-04T04:06:50.417Z,101716.38
2022-10-04T04:09:24.090Z,101716.22
2022-10-04T04:11:55.532Z,101709.97
2022-10-04T04:14:28.468Z,101717.78
2022-10-04T04:17:15.615Z,101721.09
2022-10-04T04:19:42.819Z,101728.16
2022-10-04T04:22:16.686Z,101723.53
2022-10-04T04:24:44.074Z,101716.22
2022-10-04T04:27:12.588Z,101723.53
2022-10-04T04:29:49.786Z,101725.44
2022-10-04T04:32:28.428Z,101722.72
2022-10-04T04:35:00.777Z,101718.09
2022-10-04T04:37:27.338Z,101724.63
2022-10-04T04:39:56.549Z,101714.00
2022-10-04T04:42:34.747Z,101721.91
2022-10-04T04:45:17.244Z,101721.09
2022-10-04T04:47:47.603Z,101720.50
2022-10-04T04:50:36.273Z,101726.75
2022-10-04T04:53:14.747Z,101731.84
2022-10-04T04:56:02.759Z,101723.13
2022-10-04T04:58:35.964Z,101721.81
2022-10-04T05:01:29.690Z,101728.53
2022-10-04T05:04:14.177Z,101716.78
2022-10-04T05:07:02.144Z,101718.69
2022-10-04T05:09:34.597Z,101719.25
2022-10-04T05:12:07.806Z,101714.16
2022-10-04T05:14:38.691Z,101711.78
2022-10-04T05:17:06.216Z,101715.66
2022-10-04T05:19:37.535Z,101720.50
2022-10-04T05:22:11.339Z,101722.63
2022-10-04T05:24:44.703Z,101725.59
2022-10-04T05:27:24.912Z,101724.44
2022-10-04T05:30:09.560Z,101725.50
2022-10-04T05:32:59.938Z,101720.88
2022-10-04T05:35:27.906Z,101722.78
2022-10-04T05:38:33.039Z,101720.63
2022-10-04T05:41:42.120Z,101719.00
2022-10-04T05:44:26.517Z,101723.84
2022-10-04T05:46:56.859Z,101739.06
2022-10-04T05:49:28.535Z,101738.59
2022-10-04T05:52:06.226Z,101740.72
2022-10-04T05:54:35.947Z,101739.41
2022-10-04T05:57:29.706Z,101731.84
2022-10-04T06:00:06.848Z,101737.03
2022-10-04T06:03:00.035Z,101734.06
2022-10-04T06:05:40.364Z,101730.06
2022-10-04T06:08:28.576Z,101728.72
2022-10-04T06:11:09.922Z,101717.69
2022-10-04T06:14:04.317Z,101724.06
2022-10-04T06:16:43.187Z,101730.97
2022-10-04T06:19:28.555Z,101728.59
2022-10-04T06:22:01.063Z,101728.34
2022-10-04T06:24:32.494Z,101732.88
2022-10-04T06:27:19.195Z,101732.06
2022-10-04T06:29:53.577Z,101727.50
2022-10-04T06:32:38.555Z,101724.88
2022-10-04T06:35:17.326Z,101730.06
2022-10-04T06:38:11.773Z,101732.13
2022-10-04T06:41:00.054Z,101736.34
2022-10-04T06:43:46.056Z,101733.94
2022-10-04T06:46:43.501Z,101735.09
2022-10-04T06:49:25.355Z,101731.94
2022-10-04T06:52:20.417Z,101732.72
2022-10-04T06:55:08.035Z,101746.47
2022-10-04T06:57:59.983Z,101740.25
2022-10-04T07:00:33.649Z,101748.22
2022-10-04T07:03:18.784Z,101743.88
2022-10-04T07:05:54.115Z,101735.03
2022-10-04T07:08:50.401Z,101733.94
2022-10-04T07:11:23.998Z,101733.69
2022-10-04T07:14:03.372Z,101734.84
2022-10-04T07:16:56.262Z,101730.03
2022-10-04T07:19:35.114Z,101734.41
2022-10-04T07:22:07.971Z,101737.38
2022-10-04T07:25:03.597Z,101733.75
2022-10-04T07:27:36.493Z,101734.06
2022-10-04T07:30:16.454Z,101734.47
2022-10-04T07:32:48.318Z,101740.16
2022-10-04T07:35:34.816Z,101738.75
2022-10-04T07:38:12.745Z,101739.06
2022-10-04T07:41:17.122Z,101736.09
2022-10-04T07:43:57.810Z,101737.75
2022-10-04T07:46:42.724Z,101744.00
2022-10-04T07:49:21.078Z,101734.78
2022-10-04T07:51:59.501Z,101741.59
2022-10-04T07:54:52.541Z,101743.06
2022-10-04T07:57:37.898Z,101753.75
2022-10-04T08:00:16.205Z,101745.41
2022-10-04T08:03:10.374Z,101741.13
2022-10-04T08:05:42.756Z,101747.31
2022-10-04T08:08:09.143Z,101742.06
2022-10-04T08:10:57.136Z,101734.22
2022-10-04T08:13:33.423Z,101738.25
2022-10-04T08:16:04.637Z,101740.91
2022-10-04T08:18:48.252Z,101740.41
2022-10-04T08:21:23.335Z,101730.69
2022-10-04T08:24:17.717Z,101730.72
2022-10-04T08:27:06.290Z,101728.25
2022-10-04T08:29:58.868Z,101728.00
2022-10-04T08:32:44.571Z,101727.19
2022-10-04T08:35:36.721Z,101728.25
2022-10-04T08:38:36.260Z,101734.75
2022-10-04T08:41:33.674Z,101726.03
2022-10-04T08:44:38.705Z,101726.81
2022-10-04T08:47:49.697Z,101731.44
2022-10-04T08:50:31.428Z,101724.69
2022-10-04T08:53:18.352Z,101728.78
2022-10-04T08:56:23.043Z,101726.09
2022-10-04T08:59:08.482Z,101725.84
2022-10-04T09:02:02.445Z,101728.31
2022-10-04T09:04:52.509Z,101730.47
2022-10-04T09:07:34.413Z,101730.22
2022-10-04T09:10:36.354Z,101734.38
2022-10-04T09:13:57.350Z,101728.94
2022-10-04T09:16:46.852Z,101725.44
2022-10-04T09:19:41.471Z,101724.13
2022-10-04T09:22:40.098Z,101723.06
2022-10-04T09:25:32.668Z,101717.13
2022-10-04T09:28:06.844Z,101714.75
2022-10-04T09:30:51.537Z,101712.28
2022-10-04T09:33:50.411Z,101703.28
2022-10-04T09:36:36.151Z,101703.03
2022-10-04T09:39:29.948Z,101702.19
2022-10-04T09:42:08.005Z,101707.94
2022-10-04T09:45:06.100Z,101710.13
2022-10-04T09:47:41.052Z,101706.81
2022-10-04T09:50:26.999Z,101714.16
2022-10-04T09:52:57.239Z,101721.81
2022-10-04T09:55:45.583Z,101708.69
2022-10-04T09:58:43.224Z,101705.97
2022-10-04T10:01:35.563Z,101712.22
2022-10-04T10:04:21.871Z,101706.19
2022-10-04T10:07:28.190Z,101706.69
2022-10-04T10:14:42.055Z,101702.00
2022-10-04T10:17:37.170Z,101691.78
2022-10-04T10:20:23.497Z,101693.97
2022-10-04T10:23:30.313Z,101687.13
2022-10-04T10:26:23.934Z,101676.03
2022-10-04T10:29:21.270Z,101675.22
2022-10-04T10:31:59.161Z,101670.00
2022-10-04T10:34:37.743Z,101664.31
2022-10-04T10:37:10.217Z,101674.72
2022-10-04T10:40:17.739Z,101684.25
2022-10-04T10:43:03.663Z,101676.56
2022-10-04T10:45:48.913Z,101665.53
2022-10-04T10:48:47.494Z,101661.44
2022-10-04T10:51:27.201Z,101660.06
2022-10-04T10:54:15.942Z,101672.88
2022-10-04T10:56:45.868Z,101670.81
2022-10-04T10:59:37.433Z,101663.31
2022-10-04T11:02:48.212Z,101667.59
2022-10-04T11:05:48.942Z,101653.84
2022-10-04T11:08:34.473Z,101658.44
2022-10-04T11:11:18.568Z,101653.34
2022-10-04T11:13:56.853Z,101645.94
2022-10-04T11:16:44.362Z,101645.94
2022-10-04T11:19:30.231Z,101645.28
2022-10-04T11:22:20.257Z,101642.41
2022-10-04T11:25:03.619Z,101640.88
2022-10-04T11:27:48.930Z,101642.69
2022-10-04T11:30:20.951Z,101628.81
2022-10-04T11:33:20.700Z,101639.94
2022-10-04T11:36:08.639Z,101626.50
2022-10-04T11:38:48.545Z,101624.13
2022-10-04T11:41:39.152Z,101628.59
2022-10-04T11:44:41.030Z,101626.94
2022-10-04T11:47:21.610Z,101628.38
2022-10-04T11:50:22.613Z,101621.03
2022-10-04T11:53:07.963Z,101621.03
2022-10-04T11:55:54.364Z,101611.53
2022-10-04T11:58:36.289Z,101605.75
2022-10-04T12:01:41.638Z,101608.75
2022-10-04T12:04:40.956Z,101598.97
2022-10-04T12:07:50.449Z,101599.63
2022-10-04T12:10:23.402Z,101590.47
2022-10-04T12:13:14.648Z,101590.91
2022-10-04T12:15:49.332Z,101579.72
2022-10-04T12:18:15.953Z,101580.09
2022-10-04T12:21:16.073Z,101571.06
2022-10-04T12:23:51.775Z,101574.00
2022-10-04T12:27:04.551Z,101569.75
2022-10-04T12:30:01.164Z,101567.13
2022-10-04T12:32:46.223Z,101557.47
2022-10-04T12:36:03.252Z,101550.00
2022-10-04T12:38:49.725Z,101540.97
2022-10-04T12:41:50.596Z,101551.75
2022-10-04T12:44:29.351Z,101546.19
2022-10-04T12:47:23.746Z,101536.88
2022-10-04T12:50:00.377Z,101543.31
2022-10-04T12:52:34.491Z,101539.22
2022-10-04T12:55:27.019Z,101529.75
2022-10-04T12:58:03.807Z,101519.25
2022-10-04T13:00:39.249Z,101518.75
2022-10-04T13:03:52.120Z,101519.06
2022-10-04T13:06:30.479Z,101517.38
2022-10-04T13:08:57.591Z,101521.50
2022-10-04T13:11:58.897Z,101525.09
2022-10-04T13:14:55.370Z,101522.88
2022-10-04T13:17:43.182Z,101517.75
2022-10-04T13:20:40.027Z,101523.84
2022-10-04T13:23:21.544Z,101515.41
2022-10-04T13:26:06.512Z,101523.22
2022-10-04T13:29:04.535Z,101506.53
2022-10-04T13:31:52.838Z,101508.06
2022-10-04T13:34:22.151Z,101506.72
2022-10-04T13:37:22.267Z,101499.38
2022-10-04T13:40:04.202Z,101504.28
2022-10-04T13:43:00.105Z,101491.13
2022-10-04T13:45:42.321Z,101501.22
2022-10-04T13:48:51.638Z,101489.97
2022-10-04T13:51:49.166Z,101489.47
2022-10-04T13:54:48.994Z,101483.19
2022-10-04T13:57:37.530Z,101478.97
2022-10-04T14:00:07.923Z,101473.50
2022-10-04T14:03:08.413Z,101476.56
2022-10-04T14:05:57.283Z,101470.38
2022-10-04T14:09:21.244Z,101465.13
2022-10-04T14:11:53.778Z,101464.63
2022-10-04T14:14:43.614Z,101449.25
2022-10-04T14:17:44.328Z,101452.00
2022-10-04T14:20:35.259Z,101448.75
2022-10-04T14:23:40.566Z,101448.34
2022-10-04T14:26:26.979Z,101442.84
2022-10-04T14:29:15.294Z,101453.56
2022-10-04T14:31:57.056Z,101451.41
2022-10-04T14:34:45.421Z,101444.03
2022-10-04T14:37:40.223Z,101436.31
2022-10-04T14:40:31.625Z,101433.38
2022-10-04T14:43:08.264Z,101441.03
2022-10-04T14:45:59.888Z,101449.59
2022-10-04T14:48:36.071Z,101449.47
2022-10-04T14:51:39.082Z,101450.19
2022-10-04T14:54:29.281Z,101443.47
2022-10-04T14:57:43.917Z,101434.06
2022-10-04T15:00:21.934Z,101434.69
2022-10-04T15:03:06.718Z,101433.56
2022-10-04T15:05:53.064Z,101440.59
2022-10-04T15:08:24.351Z,101448.84
2022-10-04T15:11:02.648Z,101450.00
2022-10-04T15:13:37.063Z,101440.00
2022-10-04T15:16:15.980Z,101442.06
2022-10-04T15:18:56.659Z,101445.91
2022-10-04T15:21:44.164Z,101445.00
2022-10-04T15:24:44.358Z,101428.03
2022-10-04T15:27:35.327Z,101423.22
2022-10-04T15:30:23.360Z,101413.84
2022-10-04T15:33:27.706Z,101402.88
2022-10-04T15:36:11.806Z,101401.44
2022-10-04T15:39:02.604Z,101398.47
2022-10-04T15:41:53.738Z,101407.72
2022-10-04T15:44:58.784Z,101402.13
2022-10-04T15:47:54.986Z,101409.13
2022-10-04T15:50:58.015Z,101403.94
2022-10-04T15:53:39.525Z,101407.09
2022-10-04T15:56:22.506Z,101404.69
2022-10-04T15:59:13.634Z,101416.22
2022-10-04T16:02:21.771Z,101402.72
2022-10-04T16:05:14.931Z,101404.06
2022-10-04T16:07:50.053Z,101401.38
2022-10-04T16:10:47.747Z,101399.09
2022-10-04T16:13:17.144Z,101412.47
2022-10-04T16:15:49.366Z,101407.94
2022-10-04T16:18:40.427Z,101410.53
2022-10-04T16:21:28.578Z,101411.19
2022-10-04T16:24:19.858Z,101401.47
2022-10-04T16:26:52.625Z,101405.94
2022-10-04T16:29:40.825Z,101406.84
2022-10-04T16:32:19.511Z,101405.56
2022-10-04T16:34:46.017Z,101417.16
2022-10-04T16:37:41.890Z,101413.19
2022-10-04T16:40:37.201Z,101406.41
2022-10-04T16:43:23.251Z,101406.78
2022-10-04T16:46:06.087Z,101414.31
2022-10-04T16:48:58.928Z,101408.09
2022-10-04T16:51:51.711Z,101412.31
2022-10-04T16:54:42.774Z,101402.78
2022-10-04T16:57:22.213Z,101409.41
2022-10-04T16:59:55.296Z,101393.66
2022-10-04T17:02:27.186Z,101397.25
2022-10-04T17:05:29.485Z,101398.97
2022-10-04T17:08:14.653Z,101398.25
2022-10-04T17:11:06.624Z,101397.19
2022-10-04T17:14:20.066Z,101395.34
2022-10-04T17:16:57.972Z,101398.69
2022-10-04T17:19:42.370Z,101393.84
2022-10-04T17:22:33.523Z,101401.25
2022-10-04T17:25:08.922Z,101409.22
2022-10-04T17:27:56.286Z,101390.94
2022-10-04T17:30:30.489Z,101401.69
2022-10-04T17:33:19.541Z,101396.25
2022-10-04T17:36:10.385Z,101391.91
2022-10-04T17:39:05.468Z,101384.81
2022-10-04T17:41:34.974Z,101395.78
2022-10-04T17:44:29.157Z,101393.91
2022-10-04T17:47:10.678Z,101396.66
2022-10-04T17:50:12.873Z,101391.72
2022-10-04T17:53:17.957Z,101397.75
2022-10-04T17:55:49.670Z,101403.25
2022-10-04T17:58:24.179Z,101396.16
2022-10-04T18:01:02.478Z,101389.91
2022-10-04T18:03:54.691Z,101389.38
2022-10-04T18:06:30.114Z,101382.03
2022-10-04T18:09:19.590Z,101379.59
2022-10-04T18:11:51.629Z,101381.47
2022-10-04T18:14:30.064Z,101382.31
2022-10-04T18:17:09.475Z,101381.75
2022-10-04T18:19:50.086Z,101398.41
2022-10-04T18:22:21.182Z,101391.88
2022-10-04T18:25:03.846Z,101401.44
2022-10-04T18:27:51.062Z,101400.91
2022-10-04T18:30:21.119Z,101392.47
2022-10-04T18:32:51.586Z,101392.22
2022-10-04T18:35:34.578Z,101396.06
2022-10-04T18:38:21.441Z,101400.41
2022-10-04T18:41:12.434Z,101399.88
2022-10-04T18:43:52.647Z,101401.81
2022-10-04T18:46:21.521Z,101399.88
2022-10-04T18:48:51.719Z,101398.25
2022-10-04T18:51:26.855Z,101405.34
2022-10-04T18:54:14.654Z,101403.16
2022-10-04T18:57:09.086Z,101407.00
2022-10-04T19:00:39.181Z,101398.81
2022-10-04T19:03:11.645Z,101404.53
2022-10-04T19:05:53.267Z,101408.88
2022-10-04T19:08:36.561Z,101400.44
2022-10-04T19:11:15.987Z,101398.25
2022-10-04T19:13:47.594Z,101396.09
2022-10-04T19:16:54.516Z,101391.97
2022-10-04T19:19:26.934Z,101393.63
2022-10-04T19:22:14.664Z,101390.91
2022-10-04T19:24:57.899Z,101385.16
2022-10-04T19:27:24.861Z,101400.97
2022-10-04T19:30:10.501Z,101396.63
2022-10-04T19:32:52.315Z,101403.44
2022-10-04T19:35:25.351Z,101410.00
2022-10-04T19:38:08.550Z,101419.53
2022-10-04T19:40:50.243Z,101420.59
2022-10-04T19:43:53.459Z,101428.50
2022-10-04T19:47:00.624Z,101435.34
2022-10-04T19:49:40.535Z,101431.25
2022-10-04T19:52:38.641Z,101426.31
2022-10-04T19:55:19.965Z,101408.88
2022-10-04T19:57:52.031Z,101393.31
2022-10-04T20:00:20.202Z,101386.25
2022-10-04T20:02:48.887Z,101397.97
2022-10-04T20:05:25.460Z,101401.25
2022-10-04T20:07:57.477Z,101395.25
2022-10-04T20:10:39.436Z,101403.41
2022-10-04T20:13:25.503Z,101400.97
2022-10-04T20:15:57.865Z,101396.59
2022-10-04T20:18:33.800Z,101399.31
2022-10-04T20:21:00.368Z,101396.06
2022-10-04T20:23:38.306Z,101397.44
2022-10-04T20:26:08.866Z,101394.38
2022-10-04T20:28:44.553Z,101400.38
2022-10-04T20:31:31.491Z,101393.03
2022-10-04T20:34:32.499Z,101396.28
2022-10-04T20:36:59.135Z,101380.47
2022-10-04T20:39:45.789Z,101393.81
2022-10-04T20:42:27.122Z,101389.47
2022-10-04T20:44:57.994Z,101397.06
2022-10-04T20:47:39.976Z,101405.75
2022-10-04T20:50:12.975Z,101406.28
2022-10-04T20:52:45.267Z,101406.56
2022-10-04T20:55:29.350Z,101412.28
2022-10-04T20:57:59.215Z,101419.91
2022-10-04T21:00:28.130Z,101413.63
2022-10-04T21:03:15.534Z,101413.91
2022-10-04T21:05:42.399Z,101413.63
2022-10-04T21:08:22.599Z,101402.47
2022-10-04T21:11:09.637Z,101406.25
2022-10-04T21:13:52.223Z,101394.00
2022-10-04T21:16:40.582Z,101383.66
2022-10-04T21:19:32.762Z,101370.84
2022-10-04T21:22:00.198Z,101363.22
2022-10-04T21:24:53.490Z,101353.72
2022-10-04T21:27:26.885Z,101361.88
2022-10-04T21:29:53.713Z,101364.88
2022-10-04T21:32:25.100Z,101365.16
2022-10-04T21:34:53.841Z,101356.97
2022-10-04T21:37:21.372Z,101357.25
2022-10-04T21:39:48.004Z,101354.53
2022-10-04T21:42:15.099Z,101359.44
2022-10-04T21:44:41.634Z,101350.19
2022-10-04T21:47:08.867Z,101358.88
2022-10-04T21:49:35.440Z,101355.63
2022-10-04T21:52:02.759Z,101358.88
2022-10-04T21:54:29.387Z,101361.88
2022-10-04T21:56:56.134Z,101359.41
2022-10-04T21:59:22.933Z,101355.03
2022-10-04T22:01:49.575Z,101363.47
2022-10-04T22:04:16.686Z,101367.56
2022-10-04T22:06:43.475Z,101374.63
2022-10-04T22:09:10.360Z,101382.78
2022-10-04T22:11:37.578Z,101376.78
2022-10-04T22:14:04.773Z,101389.81
2022-10-04T22:16:31.663Z,101383.53
2022-10-04T22:18:58.169Z,101376.44
2022-10-04T22:21:24.721Z,101381.88
2022-10-04T22:23:51.263Z,101383.75
2022-10-04T22:26:21.106Z,101387.88
2022-10-04T22:28:53.609Z,101384.34
2022-10-04T22:31:25.010Z,101379.97
2022-10-04T22:33:52.042Z,101387.06
2022-10-04T22:36:39.424Z,101387.31
2022-10-04T22:39:09.622Z,101384.59
2022-10-04T22:41:39.498Z,101384.31
2022-10-04T22:44:23.315Z,101396.53
2022-10-04T22:46:53.458Z,101405.53
2022-10-04T22:49:22.429Z,101395.44
2022-10-04T22:51:51.319Z,101400.91
2022-10-04T22:54:20.045Z,101393.25
2022-10-04T22:56:47.417Z,101391.88
2022-10-04T22:59:16.828Z,101386.69
2022-10-04T23:01:44.004Z,101375.50
2022-10-04T23:04:20.813Z,101382.63
2022-10-04T23:06:47.841Z,101371.72
2022-10-04T23:09:14.595Z,101371.13
2022-10-04T23:11:41.334Z,101369.81
2022-10-04T23:14:07.980Z,101365.16
2022-10-04T23:16:36.440Z,101366.56
2022-10-04T23:19:21.565Z,101370.97
2022-10-04T23:21:49.943Z,101361.94
2022-10-04T23:24:22.143Z,101364.38
2022-10-04T23:26:57.504Z,101358.38
2022-10-04T23:29:28.096Z,101366.00
2022-10-04T23:31:56.112Z,101373.06
2022-10-04T23:34:40.437Z,101363.03
2022-10-04T23:37:17.689Z,101354.53
2022-10-04T23:39:44.779Z,101369.53
2022-10-04T23:42:20.446Z,101364.88
2022-10-04T23:44:49.681Z,101366.81
2022-10-04T23:47:18.899Z,101365.97
2022-10-04T23:49:51.497Z,101367.06
2022-10-04T23:52:39.606Z,101362.94
2022-10-04T23:55:22.900Z,101359.69
2022-10-04T23:57:50.219Z,101360.47
